createdAt,value
2019-05-21T00:01:48.571Z,101319.30
2019-05-21T00:04:27.939Z,101323.97
2019-05-21T00:06:47.809Z,101314.58
2019-05-21T00:09:16.160Z,101312.33
2019-05-21T00:11:44.364Z,101311.70
2019-05-21T00:14:18.488Z,101308.67
2019-05-21T00:16:48.320Z,101309.45
2019-05-21T00:19:16.554Z,101310.55
2019-05-21T00:21:44.831Z,101310.60
2019-05-21T00:24:12.914Z,101316.27
2019-05-21T00:26:41.444Z,101318.74
2019-05-21T00:30:05.084Z,101315.90
2019-05-21T00:33:28.258Z,101317.19
2019-05-21T00:36:53.966Z,101310.00
2019-05-21T00:40:17.297Z,101304.47
2019-05-21T00:42:46.224Z,101304.77
2019-05-21T00:45:16.749Z,101304.22
2019-05-21T00:47:44.846Z,101301.45
2019-05-21T00:50:13.460Z,101297.13
2019-05-21T00:52:41.811Z,101306.87
2019-05-21T00:55:10.117Z,101309.86
2019-05-21T00:57:38.748Z,101302.84
2019-05-21T01:00:07.263Z,101307.13
2019-05-21T01:02:37.712Z,101305.66
2019-05-21T01:05:05.815Z,101308.20
2019-05-21T01:07:34.563Z,101305.77
2019-05-21T01:10:02.993Z,101306.49
2019-05-21T01:12:31.288Z,101311.58
2019-05-21T01:14:59.419Z,101314.34
2019-05-21T01:17:27.636Z,101305.38
2019-05-21T01:19:56.441Z,101307.58
2019-05-21T01:22:24.501Z,101311.05
2019-05-21T01:24:52.457Z,101305.45
2019-05-21T01:27:20.870Z,101305.22
2019-05-21T01:29:48.946Z,101302.33
2019-05-21T01:32:16.884Z,101307.91
2019-05-21T01:34:45.254Z,101309.19
2019-05-21T01:37:13.329Z,101299.88
2019-05-21T01:39:41.484Z,101305.80
2019-05-21T01:42:09.608Z,101311.98
2019-05-21T01:44:38.224Z,101305.57
2019-05-21T01:47:06.429Z,101308.03
2019-05-21T01:49:34.645Z,101304.98
2019-05-21T01:52:03.998Z,101308.45
2019-05-21T01:54:31.981Z,101307.27
2019-05-21T01:57:00.091Z,101304.79
2019-05-21T01:59:28.287Z,101305.48
2019-05-21T02:01:56.396Z,101303.80
2019-05-21T02:04:24.464Z,101306.33
2019-05-21T02:06:52.605Z,101308.75
2019-05-21T02:09:20.583Z,101310.17
2019-05-21T02:11:48.674Z,101322.50
2019-05-21T02:14:16.641Z,101313.75
2019-05-21T02:16:44.875Z,101325.37
2019-05-21T02:19:17.243Z,101325.12
2019-05-21T02:21:45.422Z,101323.92
2019-05-21T02:24:14.521Z,101328.48
2019-05-21T02:26:42.486Z,101332.47
2019-05-21T02:29:10.481Z,101330.58
2019-05-21T02:31:39.145Z,101338.23
2019-05-21T02:34:07.086Z,101332.16
2019-05-21T02:36:34.950Z,101331.80
2019-05-21T02:39:05.507Z,101330.83
2019-05-21T02:41:33.416Z,101325.80
2019-05-21T02:44:01.451Z,101332.92
2019-05-21T02:46:29.363Z,101331.44
2019-05-21T02:49:02.982Z,101342.18
2019-05-21T02:51:31.114Z,101335.55
2019-05-21T02:53:59.039Z,101338.20
2019-05-21T02:56:27.076Z,101333.00
2019-05-21T02:58:55.153Z,101330.46
2019-05-21T03:01:40.830Z,101326.97
2019-05-21T03:04:09.711Z,101326.55
2019-05-21T03:06:37.823Z,101324.56
2019-05-21T03:09:06.414Z,101324.28
2019-05-21T03:11:34.273Z,101338.28
2019-05-21T03:14:02.148Z,101333.87
2019-05-21T03:16:31.456Z,101332.61
2019-05-21T03:18:59.615Z,101329.78
2019-05-21T03:21:29.007Z,101333.02
2019-05-21T03:23:56.891Z,101331.69
2019-05-21T03:26:24.890Z,101336.41
2019-05-21T03:28:52.927Z,101347.22
2019-05-21T03:31:20.823Z,101355.55
2019-05-21T03:33:48.939Z,101361.05
2019-05-21T03:36:32.831Z,101365.52
2019-05-21T03:38:48.688Z,101353.86
2019-05-21T03:41:17.807Z,101355.06
2019-05-21T03:43:45.678Z,101359.05
2019-05-21T03:46:13.738Z,101362.87
2019-05-21T03:48:41.844Z,101369.31
2019-05-21T03:51:11.504Z,101362.72
2019-05-21T03:53:39.636Z,101357.92
2019-05-21T03:56:07.504Z,101359.55
2019-05-21T03:58:35.503Z,101363.77
2019-05-21T04:01:03.362Z,101359.83
2019-05-21T04:03:32.223Z,101367.77
2019-05-21T04:06:01.497Z,101366.31
2019-05-21T04:08:29.383Z,101373.27
2019-05-21T04:10:57.621Z,101366.47
2019-05-21T04:13:25.614Z,101372.70
2019-05-21T04:16:16.059Z,101378.20
2019-05-21T04:19:00.100Z,101377.91
2019-05-21T04:21:28.139Z,101382.92
2019-05-21T04:23:56.060Z,101376.48
2019-05-21T04:26:24.170Z,101382.20
2019-05-21T04:28:52.211Z,101391.81
2019-05-21T04:31:20.099Z,101381.41
2019-05-21T04:33:47.950Z,101395.76
2019-05-21T04:36:15.943Z,101391.39
2019-05-21T04:38:43.818Z,101396.28
2019-05-21T04:41:11.699Z,101390.98
2019-05-21T04:43:39.671Z,101388.09
2019-05-21T04:46:07.510Z,101391.62
2019-05-21T04:48:35.416Z,101394.68
2019-05-21T04:51:03.651Z,101398.70
2019-05-21T04:53:33.557Z,101407.92
2019-05-21T04:56:01.581Z,101401.52
2019-05-21T04:58:29.486Z,101399.69
2019-05-21T05:00:57.519Z,101397.67
2019-05-21T05:03:25.509Z,101409.00
2019-05-21T05:05:53.453Z,101409.47
2019-05-21T05:08:22.448Z,101417.78
2019-05-21T05:10:50.502Z,101422.35
2019-05-21T05:13:18.443Z,101429.50
2019-05-21T05:15:46.517Z,101430.00
2019-05-21T05:18:14.523Z,101434.74
2019-05-21T05:20:42.805Z,101431.28
2019-05-21T05:23:10.697Z,101417.19
2019-05-21T05:25:39.677Z,101417.58
2019-05-21T05:28:07.637Z,101416.75
2019-05-21T05:30:35.518Z,101412.13
2019-05-21T05:33:03.603Z,101422.70
2019-05-21T05:35:31.457Z,101413.92
2019-05-21T05:37:59.377Z,101419.95
2019-05-21T05:40:27.755Z,101424.80
2019-05-21T05:42:55.618Z,101431.97
2019-05-21T05:45:23.526Z,101434.48
2019-05-21T05:47:51.656Z,101436.55
2019-05-21T05:50:22.381Z,101435.70
2019-05-21T05:52:50.260Z,101432.60
2019-05-21T05:55:18.150Z,101435.63
2019-05-21T05:57:46.201Z,101436.30
2019-05-21T06:00:16.760Z,101442.31
2019-05-21T06:02:44.787Z,101437.48
2019-05-21T06:05:14.426Z,101441.94
2019-05-21T06:07:42.300Z,101455.83
2019-05-21T06:10:10.778Z,101444.89
2019-05-21T06:12:38.778Z,101444.98
2019-05-21T06:15:07.121Z,101450.02
2019-05-21T06:17:34.964Z,101456.98
2019-05-21T06:20:04.678Z,101459.72
2019-05-21T06:22:32.534Z,101460.73
2019-05-21T06:25:00.265Z,101457.01
2019-05-21T06:27:29.050Z,101469.84
2019-05-21T06:29:56.752Z,101465.20
2019-05-21T06:32:24.454Z,101467.80
2019-05-21T06:34:52.354Z,101468.55
2019-05-21T06:37:20.058Z,101470.42
2019-05-21T06:39:48.015Z,101477.14
2019-05-21T06:42:15.883Z,101484.37
2019-05-21T06:44:43.613Z,101487.16
2019-05-21T06:47:11.479Z,101487.05
2019-05-21T06:49:39.485Z,101489.61
2019-05-21T06:52:07.225Z,101498.66
2019-05-21T06:54:35.093Z,101495.70
2019-05-21T06:57:03.029Z,101500.35
2019-05-21T06:59:30.871Z,101500.17
2019-05-21T07:01:58.940Z,101510.72
2019-05-21T07:04:26.654Z,101510.94
2019-05-21T07:06:54.425Z,101503.06
2019-05-21T07:09:22.388Z,101513.58
2019-05-21T07:11:50.318Z,101514.73
2019-05-21T07:14:18.062Z,101508.58
2019-05-21T07:16:47.174Z,101504.05
2019-05-21T07:19:14.911Z,101504.89
2019-05-21T07:21:42.627Z,101501.84
2019-05-21T07:24:14.928Z,101509.39
2019-05-21T07:26:42.723Z,101509.97
2019-05-21T07:29:10.539Z,101513.52
2019-05-21T07:31:38.377Z,101505.66
2019-05-21T07:34:06.161Z,101515.22
2019-05-21T07:36:34.163Z,101503.08
2019-05-21T07:39:02.114Z,101510.19
2019-05-21T07:41:30.075Z,101523.04
2019-05-21T07:43:57.972Z,101517.07
2019-05-21T07:46:25.707Z,101517.67
2019-05-21T07:48:53.526Z,101531.78
2019-05-21T07:51:21.488Z,101535.08
2019-05-21T07:53:49.278Z,101537.70
2019-05-21T07:56:17.278Z,101542.77
2019-05-21T07:58:45.216Z,101541.05
2019-05-21T08:01:14.194Z,101531.78
2019-05-21T08:03:41.939Z,101548.09
2019-05-21T08:06:09.834Z,101539.75
2019-05-21T08:08:37.564Z,101534.78
2019-05-21T08:11:09.733Z,101532.03
2019-05-21T08:13:37.453Z,101527.14
2019-05-21T08:16:05.265Z,101525.98
2019-05-21T08:18:33.179Z,101527.61
2019-05-21T08:21:00.904Z,101532.58
2019-05-21T08:23:28.700Z,101530.23
2019-05-21T08:25:56.582Z,101534.50
2019-05-21T08:28:24.362Z,101537.64
2019-05-21T08:30:53.011Z,101541.98
2019-05-21T08:33:20.926Z,101549.38
2019-05-21T08:35:48.668Z,101552.59
2019-05-21T08:38:16.526Z,101556.14
2019-05-21T08:40:44.246Z,101563.67
2019-05-21T08:43:12.108Z,101563.46
2019-05-21T08:45:40.084Z,101564.57
2019-05-21T08:48:08.324Z,101564.57
2019-05-21T08:50:36.222Z,101562.55
2019-05-21T08:53:05.985Z,101564.09
2019-05-21T08:55:34.006Z,101563.38
2019-05-21T08:58:07.782Z,101572.32
2019-05-21T09:00:38.048Z,101571.65
2019-05-21T09:03:05.920Z,101570.28
2019-05-21T09:05:33.730Z,101569.09
2019-05-21T09:08:01.665Z,101574.36
2019-05-21T09:10:29.376Z,101572.27
2019-05-21T09:12:57.114Z,101573.16
2019-05-21T09:15:24.994Z,101574.53
2019-05-21T09:17:52.707Z,101582.44
2019-05-21T09:20:20.833Z,101578.23
2019-05-21T09:22:48.543Z,101575.19
2019-05-21T09:25:19.382Z,101576.59
2019-05-21T09:27:50.109Z,101586.78
2019-05-21T09:30:19.527Z,101584.94
2019-05-21T09:32:50.115Z,101582.62
2019-05-21T09:35:18.683Z,101585.41
2019-05-21T09:37:46.541Z,101589.92
2019-05-21T09:40:15.406Z,101591.98
2019-05-21T09:42:45.494Z,101595.37
2019-05-21T09:45:14.114Z,101600.54
2019-05-21T09:47:41.857Z,101582.55
2019-05-21T09:50:10.645Z,101592.41
2019-05-21T09:52:38.376Z,101597.73
2019-05-21T09:55:07.141Z,101595.99
2019-05-21T09:58:06.854Z,101600.77
2019-05-21T10:00:53.279Z,101600.31
2019-05-21T10:03:23.146Z,101606.25
2019-05-21T10:05:51.215Z,101609.28
2019-05-21T10:08:18.944Z,101613.53
2019-05-21T10:10:46.899Z,101613.59
2019-05-21T10:13:15.927Z,101609.42
2019-05-21T10:15:43.687Z,101615.53
2019-05-21T10:18:11.559Z,101621.30
2019-05-21T10:20:40.761Z,101625.89
2019-05-21T10:23:08.521Z,101626.84
2019-05-21T10:25:37.715Z,101629.02
2019-05-21T10:28:06.836Z,101633.49
2019-05-21T10:30:43.192Z,101626.82
2019-05-21T10:33:10.977Z,101627.17
2019-05-21T10:35:38.696Z,101627.07
2019-05-21T10:38:06.638Z,101628.44
2019-05-21T10:40:34.378Z,101631.00
2019-05-21T10:43:02.327Z,101628.87
2019-05-21T10:45:30.208Z,101628.09
2019-05-21T10:47:58.054Z,101632.77
2019-05-21T10:50:25.776Z,101635.25
2019-05-21T10:52:53.982Z,101633.48
2019-05-21T10:55:21.961Z,101625.88
2019-05-21T10:57:49.704Z,101628.08
2019-05-21T11:00:23.009Z,101626.62
2019-05-21T11:02:58.774Z,101631.45
2019-05-21T11:05:40.072Z,101626.86
2019-05-21T11:08:24.778Z,101625.45
2019-05-21T11:10:38.876Z,101630.40
2019-05-21T11:13:06.816Z,101632.00
2019-05-21T11:15:34.695Z,101635.04
2019-05-21T11:18:10.632Z,101630.08
2019-05-21T11:20:32.210Z,101639.30
2019-05-21T11:22:59.968Z,101636.36
2019-05-21T11:25:28.183Z,101645.14
2019-05-21T11:27:55.886Z,101646.30
2019-05-21T11:30:23.771Z,101645.19
2019-05-21T11:32:52.032Z,101645.55
2019-05-21T11:35:20.371Z,101646.77
2019-05-21T11:37:48.380Z,101655.11
2019-05-21T11:40:16.921Z,101649.72
2019-05-21T11:42:44.622Z,101659.53
2019-05-21T11:45:12.635Z,101656.81
2019-05-21T11:47:40.495Z,101654.09
2019-05-21T11:50:10.508Z,101661.92
2019-05-21T11:52:39.246Z,101657.32
2019-05-21T11:55:07.698Z,101660.83
2019-05-21T11:57:35.435Z,101654.00
2019-05-21T12:00:05.090Z,101657.00
2019-05-21T12:02:33.144Z,101662.72
2019-05-21T12:05:00.856Z,101668.02
2019-05-21T12:07:28.719Z,101665.52
2019-05-21T12:09:56.488Z,101665.29
2019-05-21T12:12:24.289Z,101652.81
2019-05-21T12:14:52.136Z,101665.30
2019-05-21T12:17:19.855Z,101656.39
2019-05-21T12:19:47.589Z,101665.98
2019-05-21T12:22:15.468Z,101672.44
2019-05-21T12:24:43.150Z,101680.95
2019-05-21T12:27:10.997Z,101668.94
2019-05-21T12:29:39.017Z,101674.64
2019-05-21T12:32:06.831Z,101671.45
2019-05-21T12:34:34.684Z,101680.16
2019-05-21T12:37:02.431Z,101679.98
2019-05-21T12:39:30.297Z,101678.34
2019-05-21T12:41:58.050Z,101670.28
2019-05-21T12:44:27.013Z,101685.65
2019-05-21T12:46:55.016Z,101686.81
2019-05-21T12:49:22.758Z,101688.44
2019-05-21T12:51:52.035Z,101692.27
2019-05-21T12:54:20.309Z,101687.53
2019-05-21T12:56:47.988Z,101683.89
2019-05-21T12:59:15.717Z,101684.18
2019-05-21T13:01:43.598Z,101686.50
2019-05-21T13:04:11.895Z,101691.70
2019-05-21T13:06:39.966Z,101688.17
2019-05-21T13:09:08.581Z,101692.75
2019-05-21T13:11:36.558Z,101695.45
2019-05-21T13:14:04.741Z,101693.41
2019-05-21T13:16:32.469Z,101699.34
2019-05-21T13:19:00.221Z,101700.45
2019-05-21T13:21:28.696Z,101695.80
2019-05-21T13:23:56.488Z,101704.28
2019-05-21T13:26:24.245Z,101695.16
2019-05-21T13:28:52.086Z,101707.46
2019-05-21T13:31:20.045Z,101698.36
2019-05-21T13:33:47.989Z,101702.45
2019-05-21T13:36:15.865Z,101699.43
2019-05-21T13:38:43.578Z,101698.22
2019-05-21T13:41:11.930Z,101699.12
2019-05-21T13:43:39.783Z,101696.00
2019-05-21T13:46:07.657Z,101705.29
2019-05-21T13:48:35.376Z,101704.16
2019-05-21T13:51:04.278Z,101702.64
2019-05-21T13:53:32.234Z,101704.37
2019-05-21T13:55:59.971Z,101705.80
2019-05-21T13:58:27.844Z,101715.37
2019-05-21T14:00:56.293Z,101708.22
2019-05-21T14:03:24.150Z,101712.27
2019-05-21T14:05:52.037Z,101712.16
2019-05-21T14:08:20.033Z,101719.19
2019-05-21T14:10:47.819Z,101716.39
2019-05-21T14:13:15.690Z,101716.27
2019-05-21T14:15:43.822Z,101713.22
2019-05-21T14:18:11.585Z,101718.13
2019-05-21T14:20:39.370Z,101734.30
2019-05-21T14:23:07.228Z,101732.87
2019-05-21T14:25:35.237Z,101734.21
2019-05-21T14:28:04.888Z,101736.56
2019-05-21T14:30:32.874Z,101731.61
2019-05-21T14:33:00.677Z,101742.69
2019-05-21T14:35:28.450Z,101749.88
2019-05-21T14:37:56.404Z,101735.70
2019-05-21T14:40:31.530Z,101741.95
2019-05-21T14:42:59.902Z,101743.66
2019-05-21T14:45:28.799Z,101740.62
2019-05-21T14:47:54.267Z,101739.47
2019-05-21T14:50:22.180Z,101740.34
2019-05-21T14:52:52.248Z,101745.49
2019-05-21T14:55:19.966Z,101748.06
2019-05-21T14:57:48.601Z,101748.27
2019-05-21T15:00:22.863Z,101748.61
2019-05-21T15:02:50.782Z,101748.68
2019-05-21T15:05:18.515Z,101764.85
2019-05-21T15:07:49.690Z,101760.77
2019-05-21T15:10:16.292Z,101757.02
2019-05-21T15:12:44.238Z,101763.66
2019-05-21T15:15:12.149Z,101766.48
2019-05-21T15:17:39.891Z,101765.44
2019-05-21T15:20:13.198Z,101777.06
2019-05-21T15:22:41.055Z,101776.02
2019-05-21T15:25:08.992Z,101788.78
2019-05-21T15:27:36.846Z,101790.46
2019-05-21T15:30:05.341Z,101789.81
2019-05-21T15:32:33.236Z,101797.34
2019-05-21T15:35:01.124Z,101799.04
2019-05-21T15:37:28.923Z,101796.80
2019-05-21T15:39:56.927Z,101798.30
2019-05-21T15:42:24.762Z,101797.55
2019-05-21T15:44:52.657Z,101795.83
2019-05-21T15:47:23.824Z,101794.88
2019-05-21T15:49:51.742Z,101797.64
2019-05-21T15:52:19.564Z,101806.41
2019-05-21T15:54:47.416Z,101803.19
2019-05-21T15:57:15.227Z,101810.92
2019-05-21T15:59:43.034Z,101815.42
2019-05-21T16:02:11.339Z,101811.56
2019-05-21T16:04:41.237Z,101805.98
2019-05-21T16:07:09.267Z,101805.48
2019-05-21T16:09:37.175Z,101812.77
2019-05-21T16:12:04.923Z,101810.13
2019-05-21T16:14:32.693Z,101817.53
2019-05-21T16:17:00.632Z,101819.14
2019-05-21T16:19:28.399Z,101820.26
2019-05-21T16:21:59.380Z,101821.56
2019-05-21T16:24:27.247Z,101818.34
2019-05-21T16:26:55.169Z,101815.28
2019-05-21T16:29:22.900Z,101816.89
2019-05-21T16:31:50.747Z,101814.88
2019-05-21T16:34:18.805Z,101819.77
2019-05-21T16:36:46.632Z,101814.67
2019-05-21T16:39:16.407Z,101819.47
2019-05-21T16:41:45.517Z,101824.98
2019-05-21T16:44:13.596Z,101823.33
2019-05-21T16:46:42.696Z,101817.52
2019-05-21T16:49:10.748Z,101820.58
2019-05-21T16:51:38.690Z,101820.89
2019-05-21T16:54:06.434Z,101819.38
2019-05-21T16:56:34.173Z,101816.44
2019-05-21T16:59:02.136Z,101815.45
2019-05-21T17:01:30.887Z,101814.77
2019-05-21T17:04:00.200Z,101816.20
2019-05-21T17:06:28.440Z,101817.45
2019-05-21T17:08:57.679Z,101820.48
2019-05-21T17:11:25.514Z,101817.45
2019-05-21T17:13:55.175Z,101825.97
2019-05-21T17:16:23.095Z,101825.63
2019-05-21T17:18:50.821Z,101828.41
2019-05-21T17:21:18.692Z,101833.08
2019-05-21T17:23:46.413Z,101829.09
2019-05-21T17:26:14.219Z,101831.70
2019-05-21T17:28:42.122Z,101833.67
2019-05-21T17:31:10.151Z,101833.72
2019-05-21T17:33:37.948Z,101830.50
2019-05-21T17:36:05.905Z,101844.59
2019-05-21T17:38:33.881Z,101833.66
2019-05-21T17:41:01.754Z,101841.35
2019-05-21T17:43:29.538Z,101839.09
2019-05-21T17:45:57.502Z,101845.38
2019-05-21T17:48:25.269Z,101842.45
2019-05-21T17:50:53.202Z,101850.37
2019-05-21T17:53:21.096Z,101852.33
2019-05-21T17:55:48.994Z,101851.69
2019-05-21T17:58:16.800Z,101846.05
2019-05-21T18:00:51.797Z,101845.43
2019-05-21T18:03:20.120Z,101851.39
2019-05-21T18:05:49.016Z,101853.64
2019-05-21T18:08:17.844Z,101848.77
2019-05-21T18:10:45.987Z,101856.72
2019-05-21T18:13:14.838Z,101854.50
2019-05-21T18:15:42.584Z,101859.36
2019-05-21T18:18:10.705Z,101860.39
2019-05-21T18:20:39.302Z,101862.32
2019-05-21T18:23:07.589Z,101863.79
2019-05-21T18:25:35.845Z,101864.27
2019-05-21T18:28:03.629Z,101862.78
2019-05-21T18:30:31.427Z,101868.34
2019-05-21T18:33:01.104Z,101874.40
2019-05-21T18:35:28.917Z,101864.48
2019-05-21T18:37:56.782Z,101862.70
2019-05-21T18:40:24.524Z,101880.38
2019-05-21T18:42:52.823Z,101878.50
2019-05-21T18:45:24.637Z,101880.75
2019-05-21T18:47:52.448Z,101883.83
2019-05-21T18:50:34.888Z,101888.31
2019-05-21T18:52:50.409Z,101885.94
2019-05-21T18:55:18.313Z,101883.06
2019-05-21T18:57:46.171Z,101884.72
2019-05-21T19:00:17.691Z,101891.90
2019-05-21T19:02:45.703Z,101896.27
2019-05-21T19:05:13.685Z,101904.20
2019-05-21T19:07:41.391Z,101901.20
2019-05-21T19:10:09.848Z,101897.55
2019-05-21T19:12:38.866Z,101898.49
2019-05-21T19:15:08.002Z,101897.23
2019-05-21T19:17:36.057Z,101901.27
2019-05-21T19:20:05.312Z,101910.50
2019-05-21T19:22:33.419Z,101903.30
2019-05-21T19:25:01.132Z,101904.98
2019-05-21T19:27:29.141Z,101899.62
2019-05-21T19:29:57.113Z,101901.58
2019-05-21T19:32:25.012Z,101908.17
2019-05-21T19:34:52.811Z,101908.92
2019-05-21T19:37:20.597Z,101916.73
2019-05-21T19:39:48.614Z,101909.59
2019-05-21T19:42:18.343Z,101911.16
2019-05-21T19:44:46.065Z,101909.95
2019-05-21T19:47:13.962Z,101914.87
2019-05-21T19:49:41.719Z,101915.91
2019-05-21T19:52:09.679Z,101919.69
2019-05-21T19:57:12.406Z,101921.56
2019-05-21T19:59:40.493Z,101921.48
2019-05-21T20:02:10.302Z,101922.74
2019-05-21T20:04:38.815Z,101932.17
2019-05-21T20:07:09.429Z,101935.05
2019-05-21T20:09:39.315Z,101938.36
2019-05-21T20:12:09.147Z,101942.75
2019-05-21T20:14:37.290Z,101940.51
2019-05-21T20:17:07.351Z,101940.83
2019-05-21T20:19:35.833Z,101940.19
2019-05-21T20:22:06.393Z,101942.23
2019-05-21T20:24:35.212Z,101945.77
2019-05-21T20:27:03.881Z,101944.38
2019-05-21T20:32:06.806Z,101956.14
2019-05-21T20:34:34.609Z,101952.52
2019-05-21T20:37:02.853Z,101959.17
2019-05-21T20:39:32.718Z,101951.50
2019-05-21T20:42:00.790Z,101957.46
2019-05-21T20:44:28.590Z,101955.70
2019-05-21T20:46:57.066Z,101947.57
2019-05-21T20:49:25.794Z,101950.88
2019-05-21T20:51:55.726Z,101957.45
2019-05-21T20:54:26.196Z,101955.69
2019-05-21T20:56:54.121Z,101960.45
2019-05-21T20:59:22.026Z,101950.13
2019-05-21T21:01:50.476Z,101962.81
2019-05-21T21:04:19.930Z,101961.27
2019-05-21T21:06:48.392Z,101959.50
2019-05-21T21:09:16.827Z,101959.02
2019-05-21T21:11:44.972Z,101956.56
2019-05-21T21:14:17.837Z,101958.20
2019-05-21T21:16:43.220Z,101965.13
2019-05-21T21:19:11.270Z,101957.50
2019-05-21T21:21:39.693Z,101961.00
2019-05-21T21:24:08.196Z,101960.13
2019-05-21T21:26:35.967Z,101960.55
2019-05-21T21:29:05.115Z,101963.34
2019-05-21T21:31:32.953Z,101958.31
2019-05-21T21:34:00.892Z,101953.05
2019-05-21T21:36:29.361Z,101964.99
2019-05-21T21:38:59.189Z,101961.60
2019-05-21T21:41:28.668Z,101963.72
2019-05-21T21:44:00.186Z,101971.16
2019-05-21T21:46:29.242Z,101974.42
2019-05-21T21:48:58.148Z,101970.48
2019-05-21T21:51:26.052Z,101971.02
2019-05-21T21:53:54.592Z,101972.25
2019-05-21T21:56:22.410Z,101975.34
2019-05-21T21:58:50.248Z,101971.39
2019-05-21T22:01:58.476Z,101978.31
2019-05-21T22:04:35.657Z,101980.17
2019-05-21T22:07:05.303Z,101983.86
2019-05-21T22:09:38.156Z,101977.11
2019-05-21T22:12:09.773Z,101981.46
2019-05-21T22:14:50.297Z,101982.80
2019-05-21T22:17:09.283Z,101978.50
2019-05-21T22:19:38.655Z,101988.31
2019-05-21T22:22:07.056Z,101984.12
2019-05-21T22:24:34.888Z,101982.66
2019-05-21T22:27:03.491Z,101989.56
2019-05-21T22:29:32.323Z,101980.88
2019-05-21T22:32:00.137Z,101983.47
2019-05-21T22:34:27.984Z,101982.42
2019-05-21T22:36:55.858Z,101980.23
2019-05-21T22:39:26.342Z,101978.56
2019-05-21T22:41:54.427Z,101974.73
2019-05-21T22:44:22.173Z,101973.73
2019-05-21T22:46:50.742Z,101969.98
2019-05-21T22:49:18.613Z,101978.80
2019-05-21T22:51:48.941Z,101981.57
2019-05-21T22:54:16.798Z,101985.27
2019-05-21T22:56:46.141Z,101983.95
2019-05-21T22:59:14.071Z,101976.48
2019-05-21T23:01:44.766Z,101981.42
2019-05-21T23:04:13.627Z,101977.76
2019-05-21T23:06:41.354Z,101979.70
2019-05-21T23:09:09.818Z,101986.17
2019-05-21T23:11:38.954Z,101981.12
2019-05-21T23:14:07.097Z,101983.27
2019-05-21T23:16:35.241Z,101980.20
2019-05-21T23:19:04.413Z,101978.21
2019-05-21T23:21:34.584Z,101986.42
2019-05-21T23:24:03.049Z,101978.91
2019-05-21T23:26:31.757Z,101983.03
2019-05-21T23:29:00.932Z,101982.08
2019-05-21T23:31:29.460Z,101977.91
2019-05-21T23:33:58.289Z,101977.30
2019-05-21T23:36:26.612Z,101976.86
2019-05-21T23:38:55.507Z,101980.00
2019-05-21T23:41:23.619Z,101980.88
2019-05-21T23:43:52.268Z,101969.67
2019-05-21T23:46:20.304Z,101971.41
2019-05-21T23:48:48.264Z,101971.23
2019-05-21T23:51:16.489Z,101967.55
2019-05-21T23:53:44.352Z,101972.04
2019-05-21T23:56:12.295Z,101974.70
2019-05-21T23:58:40.492Z,101980.26
